Airport View

Enter AWOS ICAO identifier for current METAR.

ex. KFNL

KCPK 280340Z AUTO 00000KT 5SM BR CLR 18/18 A2996 RMK AO2 T01820176

28 Sep 2020 03:27

Frequency: 123.675

Phone: 757-421-0252

Other Area AWOS: KNFE - KPVG - KSFQ - KORF

TAF KORF 272321Z 2800/2824 12004KT P6SM OVC045 FM280600 19006KT P6SM BKN100 FM280900 20005KT P6SM VCSH OVC050 FM281200 20005KT P6SM BKN080 FM281800 19007KT P6SM SCT070